createdAt,value
2022-12-18T00:02:15.468Z,22.08
2022-12-18T00:04:42.424Z,20.58
2022-12-18T00:07:09.339Z,21.33
2022-12-18T00:09:40.317Z,21.10
2022-12-18T00:14:44.525Z,21.23
2022-12-18T00:17:11.457Z,21.75
2022-12-18T00:19:38.389Z,21.17
2022-12-18T00:22:06.091Z,20.92
2022-12-18T00:24:33.039Z,22.05
2022-12-18T00:27:00.082Z,22.55
2022-12-18T00:29:27.030Z,20.42
2022-12-18T00:31:54.060Z,20.63
2022-12-18T00:34:21.024Z,20.45
2022-12-18T00:36:48.684Z,19.95
2022-12-18T00:39:15.799Z,21.30
2022-12-18T00:42:04.046Z,21.17
2022-12-18T00:44:32.045Z,19.52
2022-12-18T00:46:59.053Z,19.42
2022-12-18T00:49:26.174Z,19.65
2022-12-18T00:51:53.101Z,20.58
2022-12-18T00:54:20.006Z,20.92
2022-12-18T00:56:50.261Z,20.92
2022-12-18T00:59:18.484Z,20.70
2022-12-18T01:01:45.824Z,21.38
2022-12-18T01:04:13.015Z,20.35
2022-12-18T01:06:39.956Z,20.17
2022-12-18T01:09:07.432Z,19.90
2022-12-18T01:11:37.113Z,20.73
2022-12-18T01:14:04.846Z,19.90
2022-12-18T01:16:32.092Z,19.92
2022-12-18T01:18:59.170Z,20.42
2022-12-18T01:21:27.865Z,19.35
2022-12-18T01:23:55.637Z,19.85
2022-12-18T01:26:24.422Z,19.97
2022-12-18T01:28:51.387Z,21.17
2022-12-18T01:31:23.505Z,19.17
2022-12-18T01:33:51.251Z,19.23
2022-12-18T01:36:22.049Z,20.40
2022-12-18T01:38:49.162Z,19.58
2022-12-18T01:41:17.313Z,20.65
2022-12-18T01:43:55.567Z,18.60
2022-12-18T01:46:23.663Z,17.73
2022-12-18T01:48:55.404Z,19.52
2022-12-18T01:51:22.474Z,18.98
2022-12-18T01:53:49.491Z,19.63
2022-12-18T01:56:18.650Z,18.67
2022-12-18T01:59:05.966Z,18.27
2022-12-18T02:01:33.913Z,18.13
2022-12-18T02:04:25.100Z,18.15
2022-12-18T02:07:14.351Z,18.40
2022-12-18T02:09:49.766Z,18.23
2022-12-18T02:12:21.517Z,19.33
2022-12-18T02:15:00.553Z,17.98
2022-12-18T02:17:36.377Z,17.85
2022-12-18T02:20:34.341Z,15.47
2022-12-18T02:23:26.338Z,15.07
2022-12-18T02:26:12.807Z,16.75
2022-12-18T02:28:43.694Z,15.63
2022-12-18T02:31:14.474Z,16.80
2022-12-18T02:33:41.912Z,16.60
2022-12-18T02:36:09.704Z,15.70
2022-12-18T02:38:37.711Z,16.20
2022-12-18T02:41:11.583Z,16.30
2022-12-18T02:43:39.866Z,14.95
2022-12-18T02:46:33.723Z,15.00
2022-12-18T02:49:29.987Z,14.68
2022-12-18T02:52:11.082Z,15.77
2022-12-18T02:54:53.526Z,14.55
2022-12-18T02:57:29.187Z,14.98
2022-12-18T03:00:19.307Z,15.88
2022-12-18T03:02:59.908Z,15.20
2022-12-18T03:05:46.625Z,15.32
2022-12-18T03:08:15.855Z,13.88
2022-12-18T03:10:50.725Z,13.73
2022-12-18T03:13:24.798Z,14.40
2022-12-18T03:15:53.068Z,16.38
2022-12-18T03:18:25.200Z,14.35
2022-12-18T03:20:53.060Z,13.80
2022-12-18T03:23:27.092Z,14.73
2022-12-18T03:25:55.798Z,13.05
2022-12-18T03:28:24.559Z,15.45
2022-12-18T03:31:00.014Z,15.35
2022-12-18T03:33:51.704Z,14.98
2022-12-18T03:36:19.036Z,15.82
2022-12-18T03:38:45.949Z,15.30
2022-12-18T03:41:32.231Z,15.77
2022-12-18T03:44:39.117Z,14.57
2022-12-18T03:47:20.173Z,15.60
2022-12-18T03:50:12.511Z,16.00
2022-12-18T03:52:58.343Z,15.65
2022-12-18T03:55:25.348Z,14.48
2022-12-18T03:57:58.596Z,16.60
2022-12-18T04:00:28.972Z,16.38
2022-12-18T04:03:04.952Z,15.55
2022-12-18T04:05:39.259Z,14.70
2022-12-18T04:08:07.427Z,16.00
2022-12-18T04:10:38.298Z,16.60
2022-12-18T04:13:05.234Z,16.00
2022-12-18T04:15:36.002Z,15.50
2022-12-18T04:20:38.600Z,14.88
2022-12-18T04:23:05.716Z,15.32
2022-12-18T04:25:33.288Z,15.95
2022-12-18T04:28:12.147Z,15.80
2022-12-18T04:30:39.551Z,15.73
2022-12-18T04:33:13.549Z,16.63
2022-12-18T04:35:42.301Z,17.15
2022-12-18T04:38:09.710Z,17.67
2022-12-18T04:40:37.869Z,17.17
2022-12-18T04:43:11.837Z,17.85
2022-12-18T04:45:38.851Z,15.30
2022-12-18T04:48:07.627Z,17.48
2022-12-18T04:50:34.543Z,16.63
2022-12-18T04:53:01.441Z,16.77
2022-12-18T04:55:28.863Z,16.42
2022-12-18T04:57:55.786Z,16.45
2022-12-18T05:00:23.137Z,17.23
2022-12-18T05:02:50.156Z,15.80
2022-12-18T05:05:17.340Z,15.65
2022-12-18T05:07:44.225Z,15.98
2022-12-18T05:10:11.233Z,16.40
2022-12-18T05:12:59.091Z,17.08
2022-12-18T05:15:30.007Z,16.80
2022-12-18T05:17:59.543Z,16.20
2022-12-18T05:20:27.145Z,17.60
2022-12-18T05:22:55.140Z,16.67
2022-12-18T05:25:22.355Z,17.77
2022-12-18T05:27:49.303Z,16.35
2022-12-18T05:30:16.511Z,16.80
2022-12-18T05:32:43.541Z,16.60
2022-12-18T05:35:11.749Z,17.02
2022-12-18T05:37:42.910Z,17.42
2022-12-18T05:40:10.939Z,16.70
2022-12-18T05:42:37.839Z,17.10
2022-12-18T05:45:05.719Z,17.25
2022-12-18T05:47:32.695Z,16.83
2022-12-18T05:49:59.706Z,17.95
2022-12-18T05:52:26.890Z,17.73
2022-12-18T05:54:53.830Z,17.63
2022-12-18T05:57:21.018Z,16.92
2022-12-18T05:59:47.990Z,17.50
2022-12-18T06:02:15.034Z,17.15
2022-12-18T06:04:42.119Z,17.52
2022-12-18T06:07:09.036Z,18.20
2022-12-18T06:09:36.030Z,17.77
2022-12-18T06:12:03.008Z,16.92
2022-12-18T06:14:29.990Z,17.20
2022-12-18T06:16:56.964Z,17.25
2022-12-18T06:19:23.885Z,17.08
2022-12-18T06:21:51.766Z,16.88
2022-12-18T06:24:18.660Z,16.95
2022-12-18T06:26:45.604Z,17.48
2022-12-18T06:29:12.595Z,16.88
2022-12-18T06:31:39.851Z,17.52
2022-12-18T06:34:06.805Z,17.23
2022-12-18T06:36:33.849Z,17.63
2022-12-18T06:39:00.907Z,17.25
2022-12-18T06:41:27.911Z,17.25
2022-12-18T06:43:59.586Z,16.98
2022-12-18T06:48:54.001Z,16.42
2022-12-18T06:51:21.878Z,15.45
2022-12-18T06:53:48.980Z,16.85
2022-12-18T06:56:15.893Z,16.20
2022-12-18T06:58:42.869Z,17.00
2022-12-18T07:01:11.485Z,16.58
2022-12-18T07:03:40.162Z,16.17
2022-12-18T07:06:07.675Z,16.25
2022-12-18T07:08:34.740Z,15.98
2022-12-18T07:11:04.840Z,15.95
2022-12-18T07:13:32.240Z,17.05
2022-12-18T07:16:20.941Z,16.50
2022-12-18T07:18:51.312Z,15.98
2022-12-18T07:21:19.368Z,15.98
2022-12-18T07:23:49.242Z,16.95
2022-12-18T07:26:17.990Z,15.75
2022-12-18T07:28:44.982Z,16.27
2022-12-18T07:31:13.627Z,15.95
2022-12-18T07:33:41.119Z,16.40
2022-12-18T07:36:08.924Z,16.63
2022-12-18T07:38:36.073Z,16.58
2022-12-18T07:41:03.951Z,15.82
2022-12-18T07:43:34.181Z,16.73
2022-12-18T07:46:01.084Z,16.77
2022-12-18T07:48:29.155Z,16.60
2022-12-18T07:51:02.879Z,15.95
2022-12-18T07:53:29.864Z,16.52
2022-12-18T07:56:26.071Z,15.70
2022-12-18T07:58:48.246Z,15.80
2022-12-18T08:01:15.904Z,16.77
2022-12-18T08:03:43.284Z,15.98
2022-12-18T08:06:10.592Z,15.93
2022-12-18T08:08:37.966Z,17.33
2022-12-18T08:11:05.086Z,16.85
2022-12-18T08:13:31.984Z,16.45
2022-12-18T08:16:00.046Z,16.20
2022-12-18T08:18:27.260Z,17.40
2022-12-18T08:20:54.219Z,16.73
2022-12-18T08:23:21.282Z,16.58
2022-12-18T08:25:48.433Z,17.48
2022-12-18T08:28:15.494Z,15.95
2022-12-18T08:30:43.542Z,16.67
2022-12-18T08:33:10.647Z,16.65
2022-12-18T08:35:42.521Z,16.88
2022-12-18T08:38:12.449Z,17.00
2022-12-18T08:40:39.538Z,16.08
2022-12-18T08:43:24.809Z,16.63
2022-12-18T08:45:51.872Z,17.02
2022-12-18T08:48:25.180Z,16.73
2022-12-18T08:50:58.528Z,16.60
2022-12-18T08:53:25.584Z,16.55
2022-12-18T08:55:52.625Z,15.23
2022-12-18T08:58:19.770Z,15.55
2022-12-18T09:00:46.733Z,16.65
2022-12-18T09:03:15.101Z,17.27
2022-12-18T09:05:42.262Z,17.42
2022-12-18T09:08:09.293Z,16.70
2022-12-18T09:10:43.485Z,17.52
2022-12-18T09:13:11.787Z,16.95
2022-12-18T09:15:43.831Z,17.40
2022-12-18T09:18:10.950Z,17.50
2022-12-18T09:20:38.426Z,16.08
2022-12-18T09:23:05.741Z,16.77
2022-12-18T09:25:34.147Z,16.08
2022-12-18T09:28:01.553Z,16.73
2022-12-18T09:30:28.556Z,16.48
2022-12-18T09:32:55.752Z,17.73
2022-12-18T09:35:22.636Z,16.98
2022-12-18T09:37:49.634Z,17.33
2022-12-18T09:40:19.203Z,16.48
2022-12-18T09:42:48.133Z,16.60
2022-12-18T09:45:15.673Z,16.20
2022-12-18T09:47:42.689Z,17.50
2022-12-18T09:50:25.555Z,17.00
2022-12-18T09:52:54.642Z,16.02
2022-12-18T09:55:21.581Z,16.23
2022-12-18T09:57:54.623Z,15.45
2022-12-18T10:00:22.989Z,16.75
2022-12-18T10:02:52.065Z,15.85
2022-12-18T10:05:44.787Z,16.05
2022-12-18T10:08:20.271Z,15.35
2022-12-18T10:10:53.251Z,15.27
2022-12-18T10:13:36.370Z,14.95
2022-12-18T10:16:25.029Z,15.27
2022-12-18T10:19:10.175Z,15.68
2022-12-18T10:21:46.080Z,15.18
2022-12-18T10:24:23.233Z,15.07
2022-12-18T10:26:50.109Z,15.40
2022-12-18T10:29:17.484Z,15.07
2022-12-18T10:31:44.521Z,16.60
2022-12-18T10:34:12.415Z,15.82
2022-12-18T10:36:39.505Z,15.40
2022-12-18T10:39:20.908Z,16.85
2022-12-18T10:41:47.970Z,16.00
2022-12-18T10:44:24.679Z,15.00
2022-12-18T10:46:54.407Z,15.73
2022-12-18T10:49:30.372Z,16.35
2022-12-18T10:52:29.793Z,15.25
2022-12-18T10:54:59.864Z,15.23
2022-12-18T10:57:39.704Z,15.52
2022-12-18T11:00:26.204Z,16.17
2022-12-18T11:02:53.650Z,15.75
2022-12-18T11:05:27.725Z,16.38
2022-12-18T11:07:55.490Z,16.10
2022-12-18T11:10:24.894Z,16.85
2022-12-18T11:12:51.832Z,16.85
2022-12-18T11:15:25.662Z,17.05
2022-12-18T11:17:55.891Z,17.55
2022-12-18T11:20:33.571Z,17.40
2022-12-18T11:23:05.116Z,18.20
2022-12-18T11:25:34.512Z,17.70
2022-12-18T11:28:04.302Z,18.42
2022-12-18T11:30:32.812Z,17.25
2022-12-18T11:33:14.410Z,17.88
2022-12-18T11:35:46.674Z,18.58
2022-12-18T11:38:26.572Z,17.80
2022-12-18T11:41:16.301Z,17.48
2022-12-18T11:44:02.646Z,18.67
2022-12-18T11:46:46.470Z,18.65
2022-12-18T11:49:23.944Z,18.48
2022-12-18T11:51:54.751Z,18.58
2022-12-18T11:54:21.699Z,18.60
2022-12-18T11:57:04.510Z,19.15
2022-12-18T11:59:38.028Z,19.35
2022-12-18T12:02:13.061Z,18.52
2022-12-18T12:05:05.151Z,19.38
2022-12-18T12:07:41.569Z,19.73
2022-12-18T12:10:53.862Z,19.30
2022-12-18T12:13:33.470Z,19.00
2022-12-18T12:16:09.339Z,18.60
2022-12-18T12:18:54.222Z,19.40
2022-12-18T12:21:30.224Z,17.98
2022-12-18T12:24:18.322Z,18.13
2022-12-18T12:27:06.720Z,17.73
2022-12-18T12:29:43.304Z,17.58
2022-12-18T12:32:32.819Z,17.85
2022-12-18T12:35:09.702Z,18.67
2022-12-18T12:37:56.466Z,17.27
2022-12-18T12:43:28.606Z,17.63
2022-12-18T12:46:06.115Z,17.38
2022-12-18T12:48:47.459Z,17.85
2022-12-18T12:51:37.355Z,17.10
2022-12-18T12:54:06.928Z,17.50
2022-12-18T12:56:56.970Z,16.77
2022-12-18T12:59:26.266Z,17.35
2022-12-18T13:02:02.159Z,18.15
2022-12-18T13:04:41.201Z,17.88
2022-12-18T13:07:29.019Z,17.92
2022-12-18T13:10:23.731Z,17.90
2022-12-18T13:13:30.737Z,17.70
2022-12-18T13:16:07.910Z,17.25
2022-12-18T13:18:35.157Z,15.85
2022-12-18T13:21:04.112Z,16.63
2022-12-18T13:23:38.118Z,16.50
2022-12-18T13:26:11.436Z,16.83
2022-12-18T13:28:48.205Z,15.93
2022-12-18T13:31:16.287Z,15.35
2022-12-18T13:34:24.706Z,16.70
2022-12-18T13:36:34.621Z,15.30
2022-12-18T13:39:28.942Z,13.85
2022-12-18T13:42:07.270Z,15.60
2022-12-18T13:44:40.336Z,14.02
2022-12-18T13:47:29.849Z,14.82
2022-12-18T13:49:56.859Z,13.85
2022-12-18T13:52:29.757Z,14.85
2022-12-18T13:55:00.445Z,13.15
2022-12-18T13:57:34.505Z,13.17
2022-12-18T14:00:23.326Z,13.98
2022-12-18T14:02:51.564Z,13.57
2022-12-18T14:05:52.923Z,12.60
2022-12-18T14:08:20.839Z,14.07
2022-12-18T14:10:49.973Z,13.00
2022-12-18T14:13:35.209Z,13.98
2022-12-18T14:16:04.086Z,13.07
2022-12-18T14:18:37.264Z,12.00
2022-12-18T14:21:04.575Z,13.18
2022-12-18T14:23:43.215Z,13.27
2022-12-18T14:26:26.410Z,12.93
2022-12-18T14:28:54.900Z,12.63
2022-12-18T14:31:24.094Z,13.00
2022-12-18T14:33:51.512Z,12.20
2022-12-18T14:36:23.580Z,12.27
2022-12-18T14:41:19.320Z,11.43
2022-12-18T14:43:48.994Z,12.60
2022-12-18T14:46:38.859Z,12.10
2022-12-18T14:49:26.655Z,11.75
2022-12-18T14:51:55.635Z,11.65
2022-12-18T14:54:23.235Z,12.23
2022-12-18T14:56:57.712Z,11.48
2022-12-18T14:59:25.693Z,11.55
2022-12-18T15:02:06.344Z,11.85
2022-12-18T15:04:35.658Z,11.48
2022-12-18T15:07:11.632Z,11.77
2022-12-18T15:09:39.651Z,11.68
2022-12-18T15:12:07.087Z,11.02
2022-12-18T15:14:41.803Z,11.80
2022-12-18T15:17:38.304Z,11.52
2022-12-18T15:20:10.835Z,10.68
2022-12-18T15:22:38.646Z,10.55
2022-12-18T15:25:25.589Z,9.95
2022-12-18T15:27:52.592Z,10.10
2022-12-18T15:30:21.711Z,9.80
2022-12-18T15:32:49.932Z,9.43
2022-12-18T15:35:24.294Z,9.52
2022-12-18T15:37:52.743Z,9.75
2022-12-18T15:40:24.153Z,9.43
2022-12-18T15:43:12.372Z,9.13
2022-12-18T15:45:39.423Z,9.85
2022-12-18T15:48:21.991Z,8.70
2022-12-18T15:50:50.095Z,8.35
2022-12-18T15:53:17.077Z,9.32
2022-12-18T15:56:02.529Z,9.10
2022-12-18T15:58:30.002Z,7.95
2022-12-18T16:00:57.155Z,8.40
2022-12-18T16:03:24.285Z,7.60
2022-12-18T16:05:52.074Z,7.53
2022-12-18T16:08:19.096Z,7.97
2022-12-18T16:10:46.158Z,7.28
2022-12-18T16:13:13.811Z,7.63
2022-12-18T16:15:40.800Z,6.63
2022-12-18T16:18:08.003Z,6.57
2022-12-18T16:20:34.971Z,6.88
2022-12-18T16:23:02.321Z,5.97
2022-12-18T16:25:29.623Z,5.50
2022-12-18T16:27:57.059Z,4.68
2022-12-18T16:30:28.273Z,4.47
2022-12-18T16:32:56.597Z,4.78
2022-12-18T16:35:23.649Z,4.60
2022-12-18T16:37:50.664Z,4.20
2022-12-18T16:40:18.212Z,4.13
2022-12-18T16:42:46.058Z,4.53
2022-12-18T16:45:15.274Z,4.10
2022-12-18T16:47:42.544Z,4.30
2022-12-18T16:50:10.023Z,4.32
2022-12-18T16:52:37.124Z,4.43
2022-12-18T16:55:04.419Z,4.85
2022-12-18T16:57:31.438Z,4.50
2022-12-18T17:00:04.748Z,4.47
2022-12-18T17:02:33.048Z,4.13
2022-12-18T17:05:00.475Z,4.30
2022-12-18T17:07:28.396Z,4.45
2022-12-18T17:09:55.711Z,4.68
2022-12-18T17:12:22.974Z,4.72
2022-12-18T17:14:50.207Z,4.47
2022-12-18T17:17:22.841Z,5.03
2022-12-18T17:19:50.730Z,4.70
2022-12-18T17:22:17.712Z,4.90
2022-12-18T17:24:44.713Z,4.90
2022-12-18T17:27:11.737Z,4.72
2022-12-18T17:29:43.909Z,5.20
2022-12-18T17:32:14.390Z,4.88
2022-12-18T17:34:41.435Z,5.38
2022-12-18T17:37:09.099Z,5.22
2022-12-18T17:39:36.173Z,4.72
2022-12-18T17:42:03.266Z,4.72
2022-12-18T17:44:30.249Z,4.63
2022-12-18T17:46:57.551Z,4.75
2022-12-18T17:49:24.775Z,4.85
2022-12-18T17:51:51.825Z,5.50
2022-12-18T17:54:18.882Z,4.60
2022-12-18T17:56:45.795Z,4.70
2022-12-18T17:59:13.341Z,4.03
2022-12-18T18:01:44.361Z,4.55
2022-12-18T18:04:12.441Z,4.47
2022-12-18T18:06:39.603Z,4.82
2022-12-18T18:09:10.315Z,4.20
2022-12-18T18:12:03.694Z,4.38
2022-12-18T18:14:31.057Z,4.40
2022-12-18T18:16:59.200Z,4.35
2022-12-18T18:19:31.740Z,4.47
2022-12-18T18:21:58.692Z,4.43
2022-12-18T18:24:26.019Z,4.10
2022-12-18T18:26:58.102Z,4.30
2022-12-18T18:32:02.404Z,4.40
2022-12-18T18:34:33.984Z,4.15
2022-12-18T18:37:08.686Z,4.57
2022-12-18T18:40:05.288Z,4.57
2022-12-18T18:42:35.781Z,4.53
2022-12-18T18:45:06.316Z,4.63
2022-12-18T18:47:33.543Z,4.97
2022-12-18T18:50:14.214Z,4.57
2022-12-18T18:52:41.492Z,4.70
2022-12-18T18:55:25.744Z,4.60
2022-12-18T18:58:22.697Z,4.43
2022-12-18T19:01:01.487Z,4.28
2022-12-18T19:03:28.978Z,4.47
2022-12-18T19:05:59.403Z,4.50
2022-12-18T19:08:28.712Z,4.70
2022-12-18T19:11:13.885Z,4.55
2022-12-18T19:13:43.913Z,4.28
2022-12-18T19:16:12.175Z,4.53
2022-12-18T19:18:47.229Z,4.60
2022-12-18T19:21:14.757Z,4.60
2022-12-18T19:23:41.904Z,4.45
2022-12-18T19:26:27.306Z,4.90
2022-12-18T19:28:55.168Z,4.20
2022-12-18T19:31:26.186Z,4.20
2022-12-18T19:33:55.102Z,4.18
2022-12-18T19:36:25.266Z,4.18
2022-12-18T19:38:53.578Z,4.00
2022-12-18T19:41:20.945Z,3.90
2022-12-18T19:43:48.704Z,4.22
2022-12-18T19:46:17.335Z,4.40
2022-12-18T19:48:45.163Z,4.40
2022-12-18T19:51:18.156Z,4.30
2022-12-18T19:53:45.453Z,4.57
2022-12-18T19:56:15.570Z,4.85
2022-12-18T19:58:43.260Z,4.45
2022-12-18T20:01:10.565Z,4.30
2022-12-18T20:03:40.426Z,4.20
2022-12-18T20:06:15.481Z,4.18
2022-12-18T20:08:42.435Z,4.22
2022-12-18T20:11:09.407Z,4.60
2022-12-18T20:13:36.443Z,4.60
2022-12-18T20:16:03.640Z,4.28
2022-12-18T20:18:30.617Z,4.13
2022-12-18T20:20:58.449Z,4.50
2022-12-18T20:23:27.503Z,3.95
2022-12-18T20:25:55.509Z,4.13
2022-12-18T20:28:22.979Z,4.15
2022-12-18T20:30:49.927Z,4.20
2022-12-18T20:33:17.172Z,4.15
2022-12-18T20:35:44.171Z,4.45
2022-12-18T20:38:11.974Z,4.07
2022-12-18T20:40:41.601Z,4.65
2022-12-18T20:43:12.470Z,3.70
2022-12-18T20:45:43.901Z,4.00
2022-12-18T20:48:12.971Z,4.10
2022-12-18T20:50:39.975Z,4.05
2022-12-18T20:53:06.920Z,3.90
2022-12-18T20:55:34.074Z,4.00
2022-12-18T20:58:01.196Z,3.72
2022-12-18T21:00:28.423Z,3.65
2022-12-18T21:02:55.426Z,3.60
2022-12-18T21:05:22.404Z,3.17
2022-12-18T21:07:49.467Z,3.45
2022-12-18T21:10:16.500Z,3.15
2022-12-18T21:12:56.148Z,3.20
2022-12-18T21:15:28.909Z,2.80
2022-12-18T21:17:56.287Z,2.85
2022-12-18T21:20:23.374Z,3.00
2022-12-18T21:22:50.373Z,2.50
2022-12-18T21:25:17.420Z,2.60
2022-12-18T21:27:44.494Z,2.47
2022-12-18T21:30:11.749Z,2.75
2022-12-18T21:32:38.677Z,2.55
2022-12-18T21:35:06.173Z,2.38
2022-12-18T21:37:33.218Z,2.60
2022-12-18T21:40:00.258Z,2.50
2022-12-18T21:42:45.708Z,2.67
2022-12-18T21:45:12.604Z,2.60
2022-12-18T21:47:39.800Z,2.63
2022-12-18T21:50:06.954Z,2.63
2022-12-18T21:52:33.930Z,2.30
2022-12-18T21:55:08.560Z,2.53
2022-12-18T21:57:37.122Z,2.33
2022-12-18T22:00:05.395Z,2.42
2022-12-18T22:02:39.284Z,2.10
2022-12-18T22:05:06.896Z,2.30
2022-12-18T22:07:34.270Z,2.38
2022-12-18T22:10:02.030Z,1.92
2022-12-18T22:12:38.548Z,2.08
2022-12-18T22:15:21.081Z,2.20
2022-12-18T22:17:50.508Z,2.10
2022-12-18T22:20:18.433Z,2.08
2022-12-18T22:22:49.685Z,2.17
2022-12-18T22:25:16.633Z,2.10
2022-12-18T22:28:04.082Z,1.95
2022-12-18T22:30:31.018Z,1.75
2022-12-18T22:32:58.307Z,1.70
2022-12-18T22:35:25.326Z,1.90
2022-12-18T22:37:52.321Z,1.90
2022-12-18T22:40:24.084Z,1.65
2022-12-18T22:42:53.118Z,1.70
2022-12-18T22:45:20.519Z,1.70
2022-12-18T22:47:48.719Z,1.70
2022-12-18T22:50:15.675Z,1.90
2022-12-18T22:52:42.619Z,1.73
2022-12-18T22:55:09.862Z,2.10
2022-12-18T22:57:36.900Z,2.17
2022-12-18T23:00:07.325Z,2.05
2022-12-18T23:02:34.666Z,2.28
2022-12-18T23:05:01.714Z,2.10
2022-12-18T23:07:28.602Z,2.60
2022-12-18T23:09:58.416Z,2.53
2022-12-18T23:12:28.257Z,2.58
2022-12-18T23:14:55.424Z,2.90
2022-12-18T23:17:22.444Z,2.60
2022-12-18T23:19:49.595Z,2.97
2022-12-18T23:22:17.342Z,2.80
2022-12-18T23:24:44.407Z,3.15
2022-12-18T23:27:11.793Z,3.38
2022-12-18T23:29:39.634Z,3.33
2022-12-18T23:32:06.809Z,3.10
2022-12-18T23:34:33.727Z,3.03
2022-12-18T23:37:03.974Z,2.45
2022-12-18T23:39:31.084Z,2.40
2022-12-18T23:41:58.764Z,2.33
2022-12-18T23:44:25.984Z,2.40
2022-12-18T23:46:53.029Z,2.13
2022-12-18T23:49:20.079Z,2.10
2022-12-18T23:51:47.003Z,2.00
2022-12-18T23:54:13.936Z,2.10
2022-12-18T23:56:40.839Z,1.80
2022-12-18T23:59:07.791Z,1.95
